sensor_id;sensor_type;location;lat;lon;timestamp;pressure;altitude;pressure_sealevel;temperature;humidity
10824;BME280;39116;59.332;18.034;2023-03-03T00:01:13;100989.44;;;3.67;100.00
10824;BME280;39116;59.332;18.034;2023-03-03T00:03:35;101000.59;;;3.67;100.00
10824;BME280;39116;59.332;18.034;2023-03-03T00:05:57;100997.09;;;3.65;100.00
10824;BME280;39116;59.332;18.034;2023-03-03T00:08:21;100971.00;;;3.56;100.00
10824;BME280;39116;59.332;18.034;2023-03-03T00:10:43;100959.34;;;3.44;100.00
10824;BME280;39116;59.332;18.034;2023-03-03T00:13:12;100985.94;;;3.65;100.00
10824;BME280;39116;59.332;18.034;2023-03-03T00:15:35;100985.94;;;3.65;100.00
10824;BME280;39116;59.332;18.034;2023-03-03T00:17:57;100982.16;;;3.56;100.00
10824;BME280;39116;59.332;18.034;2023-03-03T00:20:31;100991.66;;;3.57;100.00
10824;BME280;39116;59.332;18.034;2023-03-03T00:22:54;100981.28;;;3.56;100.00
10824;BME280;39116;59.332;18.034;2023-03-03T00:25:27;100974.13;;;3.49;100.00
10824;BME280;39116;59.332;18.034;2023-03-03T00:27:49;100977.50;;;3.48;100.00
10824;BME280;39116;59.332;18.034;2023-03-03T00:30:17;100976.34;;;3.39;100.00
10824;BME280;39116;59.332;18.034;2023-03-03T00:32:44;100983.06;;;3.36;100.00
10824;BME280;39116;59.332;18.034;2023-03-03T00:35:22;100969.34;;;3.37;100.00
10824;BME280;39116;59.332;18.034;2023-03-03T00:37:44;100974.13;;;3.28;100.00
10824;BME280;39116;59.332;18.034;2023-03-03T00:40:18;100977.78;;;3.33;100.00
10824;BME280;39116;59.332;18.034;2023-03-03T00:42:46;100984.41;;;3.28;100.00
10824;BME280;39116;59.332;18.034;2023-03-03T00:45:24;100967.09;;;3.23;100.00
10824;BME280;39116;59.332;18.034;2023-03-03T00:47:47;100967.66;;;3.16;100.00
10824;BME280;39116;59.332;18.034;2023-03-03T00:50:27;100948.66;;;3.13;100.00
10824;BME280;39116;59.332;18.034;2023-03-03T00:52:58;100960.81;;;3.17;100.00
10824;BME280;39116;59.332;18.034;2023-03-03T00:55:20;100970.63;;;3.25;100.00
10824;BME280;39116;59.332;18.034;2023-03-03T00:57:44;100969.97;;;3.31;100.00
10824;BME280;39116;59.332;18.034;2023-03-03T01:00:07;100965.97;;;3.17;100.00
10824;BME280;39116;59.332;18.034;2023-03-03T01:02:29;100958.38;;;3.20;100.00
10824;BME280;39116;59.332;18.034;2023-03-03T01:04:52;100955.44;;;3.11;100.00
10824;BME280;39116;59.332;18.034;2023-03-03T01:07:15;100966.97;;;3.20;100.00
10824;BME280;39116;59.332;18.034;2023-03-03T01:09:38;100946.16;;;3.14;100.00
10824;BME280;39116;59.332;18.034;2023-03-03T01:12:00;100969.59;;;3.22;100.00
10824;BME280;39116;59.332;18.034;2023-03-03T01:14:23;100955.66;;;3.17;100.00
10824;BME280;39116;59.332;18.034;2023-03-03T01:16:45;100955.66;;;3.17;100.00
10824;BME280;39116;59.332;18.034;2023-03-03T01:19:07;100937.97;;;3.03;100.00
10824;BME280;39116;59.332;18.034;2023-03-03T01:21:29;100954.97;;;3.21;100.00
10824;BME280;39116;59.332;18.034;2023-03-03T01:23:51;100956.28;;;3.11;100.00
10824;BME280;39116;59.332;18.034;2023-03-03T01:26:13;100947.25;;;3.00;100.00
10824;BME280;39116;59.332;18.034;2023-03-03T01:28:35;100957.88;;;3.08;100.00
10824;BME280;39116;59.332;18.034;2023-03-03T01:31:01;100961.31;;;3.08;100.00
10824;BME280;39116;59.332;18.034;2023-03-03T01:33:23;100953.28;;;3.00;100.00
10824;BME280;39116;59.332;18.034;2023-03-03T01:35:46;100956.41;;;2.93;100.00
10824;BME280;39116;59.332;18.034;2023-03-03T01:38:08;100858.13;;;2.39;100.00
10824;BME280;39116;59.332;18.034;2023-03-03T01:40:30;100948.47;;;2.89;100.00
10824;BME280;39116;59.332;18.034;2023-03-03T01:42:53;100937.06;;;2.82;100.00
10824;BME280;39116;59.332;18.034;2023-03-03T01:45:18;100951.13;;;2.90;100.00
10824;BME280;39116;59.332;18.034;2023-03-03T01:47:46;100935.44;;;2.84;100.00
10824;BME280;39116;59.332;18.034;2023-03-03T01:50:11;100938.69;;;2.80;100.00
10824;BME280;39116;59.332;18.034;2023-03-03T01:52:37;100942.88;;;2.78;100.00
10824;BME280;39116;59.332;18.034;2023-03-03T01:55:02;100936.81;;;2.76;100.00
10824;BME280;39116;59.332;18.034;2023-03-03T01:57:27;100931.19;;;2.84;100.00
10824;BME280;39116;59.332;18.034;2023-03-03T01:59:53;100806.78;;;2.00;100.00
10824;BME280;39116;59.332;18.034;2023-03-03T02:02:16;100800.72;;;1.98;100.00
10824;BME280;39116;59.332;18.034;2023-03-03T02:04:40;100931.66;;;2.76;100.00
10824;BME280;39116;59.332;18.034;2023-03-03T02:07:06;100929.09;;;2.76;100.00
10824;BME280;39116;59.332;18.034;2023-03-03T02:09:36;100924.63;;;2.72;100.00
10824;BME280;39116;59.332;18.034;2023-03-03T02:12:04;100937.28;;;2.67;100.00
10824;BME280;39116;59.332;18.034;2023-03-03T02:14:26;100936.28;;;2.63;100.00
10824;BME280;39116;59.332;18.034;2023-03-03T02:16:48;100933.59;;;2.60;100.00
10824;BME280;39116;59.332;18.034;2023-03-03T02:19:19;100934.91;;;2.72;100.00
10824;BME280;39116;59.332;18.034;2023-03-03T02:21:45;100921.31;;;2.55;100.00
10824;BME280;39116;59.332;18.034;2023-03-03T02:24:12;100934.38;;;2.59;100.00
10824;BME280;39116;59.332;18.034;2023-03-03T02:26:40;100898.34;;;2.38;100.00
10824;BME280;39116;59.332;18.034;2023-03-03T02:29:02;100922.63;;;2.64;100.00
10824;BME280;39116;59.332;18.034;2023-03-03T02:31:26;100926.94;;;2.65;100.00
10824;BME280;39116;59.332;18.034;2023-03-03T02:33:50;100920.31;;;2.51;100.00
10824;BME280;39116;59.332;18.034;2023-03-03T02:36:15;100946.53;;;2.63;100.00
10824;BME280;39116;59.332;18.034;2023-03-03T02:38:42;100932.13;;;2.67;100.00
10824;BME280;39116;59.332;18.034;2023-03-03T02:41:09;100927.63;;;2.61;100.00
10824;BME280;39116;59.332;18.034;2023-03-03T02:43:39;100834.50;;;2.07;100.00
10824;BME280;39116;59.332;18.034;2023-03-03T02:46:03;100935.66;;;2.69;100.00
10824;BME280;39116;59.332;18.034;2023-03-03T02:48:25;100937.28;;;2.67;100.00
10824;BME280;39116;59.332;18.034;2023-03-03T02:50:47;100940.59;;;2.64;100.00
10824;BME280;39116;59.332;18.034;2023-03-03T02:53:09;100945.69;;;2.63;100.00
10824;BME280;39116;59.332;18.034;2023-03-03T02:55:31;100944.81;;;2.62;100.00
10824;BME280;39116;59.332;18.034;2023-03-03T02:57:53;100939.75;;;2.64;100.00
10824;BME280;39116;59.332;18.034;2023-03-03T03:00:17;100939.38;;;2.56;100.00
10824;BME280;39116;59.332;18.034;2023-03-03T03:02:40;100946.84;;;2.50;100.00
10824;BME280;39116;59.332;18.034;2023-03-03T03:05:03;100937.09;;;2.62;100.00
10824;BME280;39116;59.332;18.034;2023-03-03T03:07:24;100915.94;;;2.48;100.00
10824;BME280;39116;59.332;18.034;2023-03-03T03:09:47;100944.75;;;2.61;100.00
10824;BME280;39116;59.332;18.034;2023-03-03T03:12:09;100940.13;;;2.54;100.00
10824;BME280;39116;59.332;18.034;2023-03-03T03:14:31;100940.75;;;2.48;100.00
10824;BME280;39116;59.332;18.034;2023-03-03T03:16:55;100934.84;;;2.51;100.00
10824;BME280;39116;59.332;18.034;2023-03-03T03:19:17;100935.72;;;2.51;100.00
10824;BME280;39116;59.332;18.034;2023-03-03T03:21:39;100931.03;;;2.41;100.00
10824;BME280;39116;59.332;18.034;2023-03-03T03:24:01;100935.88;;;2.54;100.00
10824;BME280;39116;59.332;18.034;2023-03-03T03:26:23;100925.28;;;2.46;100.00
10824;BME280;39116;59.332;18.034;2023-03-03T03:28:45;100924.94;;;2.39;100.00
10824;BME280;39116;59.332;18.034;2023-03-03T03:31:08;100802.88;;;1.69;100.00
10824;BME280;39116;59.332;18.034;2023-03-03T03:33:32;100920.75;;;2.41;100.00
10824;BME280;39116;59.332;18.034;2023-03-03T03:35:54;100918.31;;;2.24;100.00
10824;BME280;39116;59.332;18.034;2023-03-03T03:38:17;100908.06;;;2.26;100.00
10824;BME280;39116;59.332;18.034;2023-03-03T03:40:39;100921.53;;;2.20;100.00
10824;BME280;39116;59.332;18.034;2023-03-03T03:43:01;100916.47;;;2.22;100.00
10824;BME280;39116;59.332;18.034;2023-03-03T03:45:23;100897.75;;;2.05;100.00
10824;BME280;39116;59.332;18.034;2023-03-03T03:47:45;100930.88;;;2.18;100.00
10824;BME280;39116;59.332;18.034;2023-03-03T03:50:10;100918.78;;;2.35;100.00
10824;BME280;39116;59.332;18.034;2023-03-03T03:52:32;100916.47;;;2.22;100.00
10824;BME280;39116;59.332;18.034;2023-03-03T03:54:54;100918.63;;;2.13;100.00
10824;BME280;39116;59.332;18.034;2023-03-03T03:57:16;100907.25;;;2.07;100.00
10824;BME280;39116;59.332;18.034;2023-03-03T03:59:38;100926.56;;;2.17;100.00
10824;BME280;39116;59.332;18.034;2023-03-03T04:02:00;100927.09;;;2.10;100.00
10824;BME280;39116;59.332;18.034;2023-03-03T04:04:22;100902.81;;;2.03;100.00
10824;BME280;39116;59.332;18.034;2023-03-03T04:06:45;100910.84;;;2.11;100.00
10824;BME280;39116;59.332;18.034;2023-03-03T04:09:08;100903.41;;;1.98;100.00
10824;BME280;39116;59.332;18.034;2023-03-03T04:11:30;100912.56;;;2.10;100.00
10824;BME280;39116;59.332;18.034;2023-03-03T04:13:52;100905.38;;;2.03;100.00
10824;BME280;39116;59.332;18.034;2023-03-03T04:16:14;100895.84;;;2.01;100.00
10824;BME280;39116;59.332;18.034;2023-03-03T04:18:36;100900.63;;;1.93;100.00
10824;BME280;39116;59.332;18.034;2023-03-03T04:20:58;100904.31;;;1.80;100.00
10824;BME280;39116;59.332;18.034;2023-03-03T04:23:21;100887.31;;;1.82;100.00
10824;BME280;39116;59.332;18.034;2023-03-03T04:25:45;100902.72;;;1.82;100.00
10824;BME280;39116;59.332;18.034;2023-03-03T04:28:07;100900.06;;;1.81;100.00
10824;BME280;39116;59.332;18.034;2023-03-03T04:30:30;100893.25;;;1.63;100.00
10824;BME280;39116;59.332;18.034;2023-03-03T04:32:52;100907.00;;;1.64;100.00
10824;BME280;39116;59.332;18.034;2023-03-03T04:35:14;100903.59;;;1.65;100.00
10824;BME280;39116;59.332;18.034;2023-03-03T04:37:36;100909.47;;;1.62;100.00
10824;BME280;39116;59.332;18.034;2023-03-03T04:39:59;100902.50;;;1.60;100.00
10824;BME280;39116;59.332;18.034;2023-03-03T04:42:21;100898.56;;;1.48;100.00
10824;BME280;39116;59.332;18.034;2023-03-03T04:44:43;100888.59;;;1.55;100.00
10824;BME280;39116;59.332;18.034;2023-03-03T04:47:05;100897.88;;;1.52;100.00
10824;BME280;39116;59.332;18.034;2023-03-03T04:49:27;100903.84;;;1.51;100.00
10824;BME280;39116;59.332;18.034;2023-03-03T04:51:49;100898.34;;;1.62;100.00
10824;BME280;39116;59.332;18.034;2023-03-03T04:54:11;100889.56;;;1.57;100.00
10824;BME280;39116;59.332;18.034;2023-03-03T04:56:34;100887.09;;;1.60;100.00
10824;BME280;39116;59.332;18.034;2023-03-03T04:58:56;100879.47;;;1.61;100.00
10824;BME280;39116;59.332;18.034;2023-03-03T05:01:18;100877.44;;;1.54;100.00
10824;BME280;39116;59.332;18.034;2023-03-03T05:03:40;100884.63;;;1.43;100.00
10824;BME280;39116;59.332;18.034;2023-03-03T05:06:03;100885.06;;;1.52;100.00
10824;BME280;39116;59.332;18.034;2023-03-03T05:08:25;100850.06;;;1.35;100.00
10824;BME280;39116;59.332;18.034;2023-03-03T05:10:50;100867.94;;;1.51;100.00
10824;BME280;39116;59.332;18.034;2023-03-03T05:13:13;100860.69;;;1.43;100.00
10824;BME280;39116;59.332;18.034;2023-03-03T05:15:36;100854.16;;;1.49;100.00
10824;BME280;39116;59.332;18.034;2023-03-03T05:17:58;100854.69;;;1.42;100.00
10824;BME280;39116;59.332;18.034;2023-03-03T05:20:20;100858.97;;;1.43;100.00
10824;BME280;39116;59.332;18.034;2023-03-03T05:22:42;100864.00;;;1.40;100.00
10824;BME280;39116;59.332;18.034;2023-03-03T05:25:05;100862.78;;;1.51;100.00
10824;BME280;39116;59.332;18.034;2023-03-03T05:27:28;100865.00;;;1.44;100.00
10824;BME280;39116;59.332;18.034;2023-03-03T05:29:52;100864.25;;;1.46;100.00
10824;BME280;39116;59.332;18.034;2023-03-03T05:32:14;100860.75;;;1.44;100.00
10824;BME280;39116;59.332;18.034;2023-03-03T05:34:36;100857.25;;;1.42;100.00
10824;BME280;39116;59.332;18.034;2023-03-03T05:36:58;100844.50;;;1.44;100.00
10824;BME280;39116;59.332;18.034;2023-03-03T05:39:20;100868.53;;;1.46;100.00
10824;BME280;39116;59.332;18.034;2023-03-03T05:41:42;100861.19;;;1.36;100.00
10824;BME280;39116;59.332;18.034;2023-03-03T05:44:05;100856.78;;;1.51;100.00
10824;BME280;39116;59.332;18.034;2023-03-03T05:46:28;100853.25;;;1.49;100.00
10824;BME280;39116;59.332;18.034;2023-03-03T05:48:50;100858.13;;;1.43;100.00
10824;BME280;39116;59.332;18.034;2023-03-03T05:51:12;100851.69;;;1.33;100.00
10824;BME280;39116;59.332;18.034;2023-03-03T05:53:34;100865.72;;;1.41;100.00
10824;BME280;39116;59.332;18.034;2023-03-03T05:55:56;100867.34;;;1.39;100.00
10824;BME280;39116;59.332;18.034;2023-03-03T05:58:18;100860.75;;;1.44;100.00
10824;BME280;39116;59.332;18.034;2023-03-03T06:00:40;100852.75;;;1.38;100.00
10824;BME280;39116;59.332;18.034;2023-03-03T06:03:03;100853.94;;;1.45;100.00
10824;BME280;39116;59.332;18.034;2023-03-03T06:05:25;100858.38;;;1.49;100.00
10824;BME280;39116;59.332;18.034;2023-03-03T06:07:47;100857.38;;;1.45;100.00
10824;BME280;39116;59.332;18.034;2023-03-03T06:10:10;100857.38;;;1.45;100.00
10824;BME280;39116;59.332;18.034;2023-03-03T06:12:32;100854.00;;;1.46;100.00
10824;BME280;39116;59.332;18.034;2023-03-03T06:14:54;100849.66;;;1.45;100.00
10824;BME280;39116;59.332;18.034;2023-03-03T06:17:16;100810.66;;;1.15;100.00
10824;BME280;39116;59.332;18.034;2023-03-03T06:19:40;100848.88;;;1.46;100.00
10824;BME280;39116;59.332;18.034;2023-03-03T06:22:02;100841.97;;;1.45;100.00
10824;BME280;39116;59.332;18.034;2023-03-03T06:24:24;100839.06;;;1.38;100.00
10824;BME280;39116;59.332;18.034;2023-03-03T06:26:49;100834.78;;;1.38;100.00
10824;BME280;39116;59.332;18.034;2023-03-03T06:29:11;100845.34;;;1.44;100.00
10824;BME280;39116;59.332;18.034;2023-03-03T06:31:33;100828.44;;;1.48;100.00
10824;BME280;39116;59.332;18.034;2023-03-03T06:33:56;100821.75;;;1.51;100.00
10824;BME280;39116;59.332;18.034;2023-03-03T06:36:19;100741.16;;;0.91;100.00
10824;BME280;39116;59.332;18.034;2023-03-03T06:38:41;100845.78;;;1.53;100.00
10824;BME280;39116;59.332;18.034;2023-03-03T06:41:03;100835.66;;;1.57;100.00
10824;BME280;39116;59.332;18.034;2023-03-03T06:43:27;100827.16;;;1.58;100.00
10824;BME280;39116;59.332;18.034;2023-03-03T06:45:49;100838.25;;;1.57;100.00
10824;BME280;39116;59.332;18.034;2023-03-03T06:48:11;100838.34;;;1.60;100.00
10824;BME280;39116;59.332;18.034;2023-03-03T06:50:33;100805.03;;;1.42;100.00
10824;BME280;39116;59.332;18.034;2023-03-03T06:53:01;100836.09;;;1.66;100.00
10824;BME280;39116;59.332;18.034;2023-03-03T06:55:25;100831.97;;;1.69;100.00
10824;BME280;39116;59.332;18.034;2023-03-03T06:57:47;100824.34;;;1.71;100.00
10824;BME280;39116;59.332;18.034;2023-03-03T07:00:14;100826.09;;;1.72;100.00
10824;BME280;39116;59.332;18.034;2023-03-03T07:02:37;100831.22;;;1.72;100.00
10824;BME280;39116;59.332;18.034;2023-03-03T07:05:00;100850.28;;;1.77;100.00
10824;BME280;39116;59.332;18.034;2023-03-03T07:07:23;100699.44;;;0.93;100.00
10824;BME280;39116;59.332;18.034;2023-03-03T07:09:48;100835.16;;;1.83;100.00
10824;BME280;39116;59.332;18.034;2023-03-03T07:12:15;100828.56;;;1.88;100.00
10824;BME280;39116;59.332;18.034;2023-03-03T07:14:41;100832.88;;;1.89;100.00
10824;BME280;39116;59.332;18.034;2023-03-03T07:17:04;100831.25;;;1.91;100.00
10824;BME280;39116;59.332;18.034;2023-03-03T07:19:30;100843.28;;;1.93;100.00
10824;BME280;39116;59.332;18.034;2023-03-03T07:21:53;100816.19;;;1.99;100.00
10824;BME280;39116;59.332;18.034;2023-03-03T07:24:25;100822.44;;;2.06;100.00
10824;BME280;39116;59.332;18.034;2023-03-03T07:26:50;100803.41;;;2.01;100.00
10824;BME280;39116;59.332;18.034;2023-03-03T07:29:20;100803.69;;;2.07;100.00
10824;BME280;39116;59.332;18.034;2023-03-03T07:31:45;100819.97;;;2.07;100.00
10824;BME280;39116;59.332;18.034;2023-03-03T07:34:16;100809.00;;;2.12;100.00
10824;BME280;39116;59.332;18.034;2023-03-03T07:36:40;100805.88;;;2.19;100.00
10824;BME280;39116;59.332;18.034;2023-03-03T07:39:16;100795.44;;;2.14;100.00
10824;BME280;39116;59.332;18.034;2023-03-03T07:41:40;100796.56;;;2.21;100.00
10824;BME280;39116;59.332;18.034;2023-03-03T07:44:09;100784.06;;;2.28;100.00
10824;BME280;39116;59.332;18.034;2023-03-03T07:46:40;100764.63;;;2.14;100.00
10824;BME280;39116;59.332;18.034;2023-03-03T07:49:15;100777.94;;;2.46;100.00
10824;BME280;39116;59.332;18.034;2023-03-03T07:51:41;100775.47;;;2.49;100.00
10824;BME280;39116;59.332;18.034;2023-03-03T07:54:16;100755.75;;;2.48;100.00
10824;BME280;39116;59.332;18.034;2023-03-03T07:56:45;100758.81;;;2.60;100.00
10824;BME280;39116;59.332;18.034;2023-03-03T07:59:19;100760.41;;;2.58;100.00
10824;BME280;39116;59.332;18.034;2023-03-03T08:01:43;100770.41;;;2.72;100.00
10824;BME280;39116;59.332;18.034;2023-03-03T08:04:15;100764.81;;;2.82;100.00
10824;BME280;39116;59.332;18.034;2023-03-03T08:06:44;100755.81;;;2.93;100.00
10824;BME280;39116;59.332;18.034;2023-03-03T08:12:17;100741.22;;;3.15;100.00
10824;BME280;39116;59.332;18.034;2023-03-03T08:14:41;100733.91;;;3.25;100.00
10824;BME280;39116;59.332;18.034;2023-03-03T08:17:08;100736.56;;;3.27;100.00
10824;BME280;39116;59.332;18.034;2023-03-03T08:19:35;100718.94;;;3.38;100.00
10824;BME280;39116;59.332;18.034;2023-03-03T08:21:59;100728.50;;;3.42;100.00
10824;BME280;39116;59.332;18.034;2023-03-03T08:24:23;100722.09;;;3.55;100.00
10824;BME280;39116;59.332;18.034;2023-03-03T08:26:45;100716.97;;;3.55;100.00
10824;BME280;39116;59.332;18.034;2023-03-03T08:29:07;100712.53;;;3.51;100.00
10824;BME280;39116;59.332;18.034;2023-03-03T08:31:32;100721.00;;;3.48;100.00
10824;BME280;39116;59.332;18.034;2023-03-03T08:33:54;100712.53;;;3.51;100.00
10824;BME280;39116;59.332;18.034;2023-03-03T08:36:17;100713.25;;;3.47;100.00
10824;BME280;39116;59.332;18.034;2023-03-03T08:38:39;100688.16;;;3.41;100.00
10824;BME280;39116;59.332;18.034;2023-03-03T08:41:01;100696.84;;;3.44;100.00
10824;BME280;39116;59.332;18.034;2023-03-03T08:43:23;100694.34;;;3.46;100.00
10824;BME280;39116;59.332;18.034;2023-03-03T08:45:47;100697.66;;;3.66;100.00
10824;BME280;39116;59.332;18.034;2023-03-03T08:48:11;100704.31;;;3.61;100.00
10824;BME280;39116;59.332;18.034;2023-03-03T08:50:33;100703.72;;;3.68;100.00
10824;BME280;39116;59.332;18.034;2023-03-03T08:52:56;100645.06;;;3.35;100.00
10824;BME280;39116;59.332;18.034;2023-03-03T08:55:18;100695.84;;;3.89;100.00
10824;BME280;39116;59.332;18.034;2023-03-03T08:57:40;100695.53;;;3.80;100.00
10824;BME280;39116;59.332;18.034;2023-03-03T09:00:02;100691.97;;;3.76;100.00
10824;BME280;39116;59.332;18.034;2023-03-03T09:02:24;100666.34;;;3.79;100.00
10824;BME280;39116;59.332;18.034;2023-03-03T09:04:47;100676.66;;;3.79;100.00
10824;BME280;39116;59.332;18.034;2023-03-03T09:07:09;100682.09;;;3.89;100.00
10824;BME280;39116;59.332;18.034;2023-03-03T09:09:32;100684.94;;;3.96;100.00
10824;BME280;39116;59.332;18.034;2023-03-03T09:11:57;100669.47;;;3.96;100.00
10824;BME280;39116;59.332;18.034;2023-03-03T09:14:20;100668.63;;;3.96;100.00
10824;BME280;39116;59.332;18.034;2023-03-03T09:16:44;100654.13;;;3.99;100.00
10824;BME280;39116;59.332;18.034;2023-03-03T09:19:18;100652.13;;;4.16;100.00
10824;BME280;39116;59.332;18.034;2023-03-03T09:21:43;100646.19;;;4.46;100.00
10824;BME280;39116;59.332;18.034;2023-03-03T09:24:16;100638.81;;;4.30;100.00
10824;BME280;39116;59.332;18.034;2023-03-03T09:26:44;100628.78;;;4.39;100.00
10824;BME280;39116;59.332;18.034;2023-03-03T09:29:17;100625.28;;;4.37;100.00
10824;BME280;39116;59.332;18.034;2023-03-03T09:31:42;100619.34;;;4.39;100.00
10824;BME280;39116;59.332;18.034;2023-03-03T09:34:15;100617.88;;;4.48;100.00
10824;BME280;39116;59.332;18.034;2023-03-03T09:36:40;100609.94;;;4.40;100.00
10824;BME280;39116;59.332;18.034;2023-03-03T09:39:15;100603.38;;;4.51;100.00
10824;BME280;39116;59.332;18.034;2023-03-03T09:42:04;100603.28;;;4.48;100.00
10824;BME280;39116;59.332;18.034;2023-03-03T09:44:52;100584.22;;;4.43;100.00
10824;BME280;39116;59.332;18.034;2023-03-03T09:47:33;100590.31;;;4.45;100.00
10824;BME280;39116;59.332;18.034;2023-03-03T09:50:09;100565.38;;;4.44;100.00
10824;BME280;39116;59.332;18.034;2023-03-03T09:52:39;100559.28;;;4.42;100.00
10824;BME280;39116;59.332;18.034;2023-03-03T09:55:20;100545.53;;;4.72;100.00
10824;BME280;39116;59.332;18.034;2023-03-03T09:57:59;100543.19;;;4.49;100.00
10824;BME280;39116;59.332;18.034;2023-03-03T10:00:32;100526.06;;;4.51;100.00
10824;BME280;39116;59.332;18.034;2023-03-03T10:03:20;100536.63;;;4.61;100.00
10824;BME280;39116;59.332;18.034;2023-03-03T10:05:50;100529.09;;;4.67;100.00
10824;BME280;39116;59.332;18.034;2023-03-03T10:08:28;100488.84;;;4.42;100.00
10824;BME280;39116;59.332;18.034;2023-03-03T10:11:09;100525.94;;;4.48;100.00
10824;BME280;39116;59.332;18.034;2023-03-03T10:13:49;100533.03;;;4.55;100.00
10824;BME280;39116;59.332;18.034;2023-03-03T10:19:27;100535.56;;;4.54;100.00
10824;BME280;39116;59.332;18.034;2023-03-03T10:22:02;100527.63;;;4.46;100.00
10824;BME280;39116;59.332;18.034;2023-03-03T10:24:28;100496.25;;;4.31;100.00
10824;BME280;39116;59.332;18.034;2023-03-03T10:27:02;100520.16;;;4.27;100.00
10824;BME280;39116;59.332;18.034;2023-03-03T10:29:30;100531.97;;;4.18;100.00
10824;BME280;39116;59.332;18.034;2023-03-03T10:32:27;100514.88;;;3.93;100.00
10824;BME280;39116;59.332;18.034;2023-03-03T10:35:01;100527.59;;;3.89;100.00
10824;BME280;39116;59.332;18.034;2023-03-03T10:37:28;100508.47;;;3.80;100.00
10824;BME280;39116;59.332;18.034;2023-03-03T10:40:08;100532.63;;;3.84;100.00
10824;BME280;39116;59.332;18.034;2023-03-03T10:42:44;100534.22;;;3.80;100.00
10824;BME280;39116;59.332;18.034;2023-03-03T10:45:30;100527.22;;;3.51;100.00
10824;BME280;39116;59.332;18.034;2023-03-03T10:48:05;100531.41;;;3.47;100.00
10824;BME280;39116;59.332;18.034;2023-03-03T10:50:33;100522.16;;;3.28;100.00
10824;BME280;39116;59.332;18.034;2023-03-03T10:53:12;100526.25;;;2.97;100.00
10824;BME280;39116;59.332;18.034;2023-03-03T10:55:47;100531.06;;;2.88;100.00
10824;BME280;39116;59.332;18.034;2023-03-03T11:01:03;100514.94;;;2.68;100.00
10824;BME280;39116;59.332;18.034;2023-03-03T11:03:44;100522.06;;;2.53;100.00
10824;BME280;39116;59.332;18.034;2023-03-03T11:06:13;100518.97;;;2.37;100.00
10824;BME280;39116;59.332;18.034;2023-03-03T11:08:41;100513.28;;;2.46;100.00
10824;BME280;39116;59.332;18.034;2023-03-03T11:11:09;100501.38;;;2.25;100.00
10824;BME280;39116;59.332;18.034;2023-03-03T11:13:41;100472.06;;;2.20;100.00
10824;BME280;39116;59.332;18.034;2023-03-03T11:16:18;100431.94;;;2.00;100.00
10824;BME280;39116;59.332;18.034;2023-03-03T11:18:51;100461.44;;;2.34;100.00
10824;BME280;39116;59.332;18.034;2023-03-03T11:21:24;100462.78;;;2.24;100.00
10824;BME280;39116;59.332;18.034;2023-03-03T11:23:59;100439.06;;;2.07;100.00
10824;BME280;39116;59.332;18.034;2023-03-03T11:26:37;100439.97;;;2.32;100.00
10824;BME280;39116;59.332;18.034;2023-03-03T11:31:48;100387.78;;;1.86;100.00
10824;BME280;39116;59.332;18.034;2023-03-03T11:34:24;100424.00;;;2.16;100.00
10824;BME280;39116;59.332;18.034;2023-03-03T11:36:54;100415.03;;;2.05;100.00
10824;BME280;39116;59.332;18.034;2023-03-03T11:39:21;100426.56;;;1.94;100.00
10824;BME280;39116;59.332;18.034;2023-03-03T11:41:55;100380.13;;;1.65;100.00
10824;BME280;39116;59.332;18.034;2023-03-03T11:44:28;100396.31;;;1.85;100.00
10824;BME280;39116;59.332;18.034;2023-03-03T11:46:53;100398.81;;;1.83;100.00
10824;BME280;39116;59.332;18.034;2023-03-03T11:49:21;100402.53;;;2.14;100.00
10824;BME280;39116;59.332;18.034;2023-03-03T11:51:52;100364.81;;;1.66;100.00
10824;BME280;39116;59.332;18.034;2023-03-03T11:54:19;100390.03;;;2.01;100.00
10824;BME280;39116;59.332;18.034;2023-03-03T11:56:44;100386.78;;;2.05;100.00
10824;BME280;39116;59.332;18.034;2023-03-03T11:59:25;100370.78;;;2.12;100.00
10824;BME280;39116;59.332;18.034;2023-03-03T12:01:55;100360.13;;;2.01;100.00
10824;BME280;39116;59.332;18.034;2023-03-03T12:04:19;100322.75;;;1.85;100.00
10824;BME280;39116;59.332;18.034;2023-03-03T12:06:53;100339.97;;;2.12;100.00
10824;BME280;39116;59.332;18.034;2023-03-03T12:09:29;100313.72;;;1.97;100.00
10824;BME280;39116;59.332;18.034;2023-03-03T12:12:02;100313.31;;;2.08;100.00
10824;BME280;39116;59.332;18.034;2023-03-03T12:14:43;100291.63;;;2.26;100.00
10824;BME280;39116;59.332;18.034;2023-03-03T12:17:18;100258.31;;;2.27;100.00
10824;BME280;39116;59.332;18.034;2023-03-03T12:19:50;100233.75;;;2.36;100.00
10824;BME280;39116;59.332;18.034;2023-03-03T12:22:27;100244.22;;;2.42;100.00
10824;BME280;39116;59.332;18.034;2023-03-03T12:25:08;100221.38;;;2.50;100.00
10824;BME280;39116;59.332;18.034;2023-03-03T12:27:44;100219.44;;;2.44;100.00
10824;BME280;39116;59.332;18.034;2023-03-03T12:30:19;100198.66;;;2.63;100.00
10824;BME280;39116;59.332;18.034;2023-03-03T12:32:54;100159.44;;;2.42;100.00
10824;BME280;39116;59.332;18.034;2023-03-03T12:35:29;100196.38;;;2.73;100.00
10824;BME280;39116;59.332;18.034;2023-03-03T12:37:57;100191.88;;;2.65;100.00
10824;BME280;39116;59.332;18.034;2023-03-03T12:40:29;100180.94;;;2.73;100.00
10824;BME280;39116;59.332;18.034;2023-03-03T12:43:05;100176.13;;;2.82;100.00
10824;BME280;39116;59.332;18.034;2023-03-03T12:45:39;100156.41;;;2.82;100.00
10824;BME280;39116;59.332;18.034;2023-03-03T12:48:08;100163.69;;;2.97;100.00